Abingdon, Iowa
Current Conditions -  °F | °C
As of 5:35 PM on Monday 20 Oct 2014 (Local Time) from KFFL Reporting Station
Clear Clear  
Wind Chill: 66°   Ceiling: Unl
Heat Index: 66°   Visibility: NA
Dew Point: 41°   Wind: 10mph
Humidity: 40%   Direction: 300°WNW
Pressure: 29.98"   Gusts: NA
Location:  40.9883°N, 92.1215°W
Report Text: KFFL 202235Z AUTO 30009KT CLR 19/05 A2998 RMK AO2
Loading
Personal Weather Stations






























Interactive Weather Map
Tropical Storm Tracking
New forecast layout! Learn more

10-Day Weather Forecast

Advertisements
Track Severe Weather on mobile